56.7°F
Current conditions from King Hill
Updated every 5 minutes
 
  Wednesday October 1, 2014

Station Historical Data
Daily Summary for April 18, 2011 Units:  Both    English   Metric
« Previous Day
Next Day »
Daily Weekly Monthly Yearly Custom
  High: Low: Average:
Temperature: 46.2 °F /  7.9 °C 33.1 °F /  0.6 °C 37.9 °F /  3.3 °C
Dew Point: 32.6 °F /  0.3 °C 22.4 °F /  -5.3 °C 26.8 °F /  -2.9 °C
Humidity: 78% 49% 64%
Wind Speed: 13.0mph /  20.9km/h - 5.6mph /  9km/h
Wind Gust: 22.0mph /  35.4km/h - -
Wind- - West
Pressure: 29.99 in /  1015.5 hPa 29.60 in /  1002.3 hPa -
Precipitation: 0.01 in /  0.3 mm    
Historical Graphs
 
 
Tabular Data for April 18, 2011
Time Temperature Dew Point Pressure Wind Wind Speed Wind Gust Humidity Daily Rainfall
00:00 36.0 °F /  2.2 °C 25.4 °F /  -3.7 °C 29.60in /  1002.3hPa WSW 6.0mph /  9.7km/h 12.0mph /  19.3km/h 65% 0.50in /  12.7mm
00:10 36.0 °F /  2.2 °C 25.4 °F /  -3.7 °C 29.60in /  1002.3hPa WSW 5.0mph /  8km/h 14.0mph /  22.5km/h 65% 0.00in /  0mm
00:15 35.9 °F /  2.2 °C 25.3 °F /  -3.7 °C 29.60in /  1002.3hPa WSW 6.0mph /  9.7km/h 16.0mph /  25.7km/h 65% 0.00in /  0mm
00:20 35.9 °F /  2.2 °C 25.3 °F /  -3.7 °C 29.60in /  1002.3hPa WSW 4.0mph /  6.4km/h 16.0mph /  25.7km/h 65% 0.00in /  0mm
00:25 35.8 °F /  2.1 °C 24.8 °F /  -4 °C 29.60in /  1002.3hPa West 7.0mph /  11.3km/h 17.0mph /  27.4km/h 64% 0.00in /  0mm
00:30 35.7 °F /  2.1 °C 24.7 °F /  -4.1 °C 29.61in /  1002.6hPa WSW 6.0mph /  9.7km/h 17.0mph /  27.4km/h 64% 0.00in /  0mm
00:35 35.7 °F /  2.1 °C 24.7 °F /  -4.1 °C 29.61in /  1002.6hPa WSW 7.0mph /  11.3km/h 14.0mph /  22.5km/h 64% 0.00in /  0mm
00:40 35.6 °F /  2 °C 25.0 °F /  -3.9 °C 29.61in /  1002.6hPa SW 5.0mph /  8km/h 14.0mph /  22.5km/h 65% 0.00in /  0mm
00:45 35.6 °F /  2 °C 24.2 °F /  -4.3 °C 29.61in /  1002.6hPa WSW 9.0mph /  14.5km/h 15.0mph /  24.1km/h 63% 0.00in /  0mm
00:50 35.7 °F /  2.1 °C 24.0 °F /  -4.4 °C 29.61in /  1002.6hPa WSW 7.0mph /  11.3km/h 15.0mph /  24.1km/h 62% 0.00in /  0mm
00:55 35.6 °F /  2 °C 24.6 °F /  -4.1 °C 29.61in /  1002.6hPa SW 4.0mph /  6.4km/h 14.0mph /  22.5km/h 64% 0.00in /  0mm
01:00 35.5 °F /  1.9 °C 23.8 °F /  -4.6 °C 29.61in /  1002.6hPa WSW 6.0mph /  9.7km/h 11.0mph /  17.7km/h 62% 0.00in /  0mm
01:05 35.5 °F /  1.9 °C 24.2 °F /  -4.3 °C 29.61in /  1002.6hPa SW 6.0mph /  9.7km/h 11.0mph /  17.7km/h 63% 0.00in /  0mm
01:10 35.5 °F /  1.9 °C 24.2 °F /  -4.3 °C 29.61in /  1002.6hPa WSW 4.0mph /  6.4km/h 11.0mph /  17.7km/h 63% 0.00in /  0mm
01:15 35.5 °F /  1.9 °C 23.8 °F /  -4.6 °C 29.61in /  1002.6hPa WSW 8.0mph /  12.9km/h 14.0mph /  22.5km/h 62% 0.00in /  0mm
01:20 35.5 °F /  1.9 °C 24.2 °F /  -4.3 °C 29.61in /  1002.6hPa WSW 6.0mph /  9.7km/h 14.0mph /  22.5km/h 63% 0.00in /  0mm
01:25 35.4 °F /  1.9 °C 24.4 °F /  -4.2 °C 29.61in /  1002.6hPa WSW 4.0mph /  6.4km/h 12.0mph /  19.3km/h 64% 0.00in /  0mm
01:30 35.3 °F /  1.8 °C 24.3 °F /  -4.3 °C 29.62in /  1002.9hPa West 6.0mph /  9.7km/h 14.0mph /  22.5km/h 64% 0.00in /  0mm
01:35 35.3 °F /  1.8 °C 24.3 °F /  -4.3 °C 29.62in /  1002.9hPa WSW 7.0mph /  11.3km/h 14.0mph /  22.5km/h 64% 0.00in /  0mm
01:40 34.9 °F /  1.6 °C 26.5 °F /  -3.1 °C 29.62in /  1002.9hPa NW 5.0mph /  8km/h 14.0mph /  22.5km/h 71% 0.00in /  0mm
01:45 34.2 °F /  1.2 °C 26.8 °F /  -2.9 °C 29.62in /  1002.9hPa WNW 3.0mph /  4.8km/h 13.0mph /  20.9km/h 74% 0.00in /  0mm
01:50 33.9 °F /  1.1 °C 26.8 °F /  -2.9 °C 29.62in /  1002.9hPa Calm   7.0mph /  11.3km/h 75% 0.00in /  0mm
01:55 33.7 °F /  0.9 °C 26.9 °F /  -2.8 °C 29.62in /  1002.9hPa Calm   6.0mph /  9.7km/h 76% 0.00in /  0mm
02:00 33.4 °F /  0.8 °C 27.3 °F /  -2.6 °C 29.62in /  1002.9hPa Calm   1.0mph /  1.6km/h 78% 0.00in /  0mm
02:05 33.2 °F /  0.7 °C 27.1 °F /  -2.7 °C 29.63in /  1003.3hPa NW 1.0mph /  1.6km/h 5.0mph /  8km/h 78% 0.00in /  0mm
02:10 33.1 °F /  0.6 °C 26.7 °F /  -2.9 °C 29.63in /  1003.3hPa Calm   5.0mph /  8km/h 77% 0.00in /  0mm
02:15 33.2 °F /  0.7 °C 26.8 °F /  -2.9 °C 29.63in /  1003.3hPa NW 1.0mph /  1.6km/h 4.0mph /  6.4km/h 77% 0.00in /  0mm
02:20 33.3 °F /  0.7 °C 26.9 °F /  -2.8 °C 29.63in /  1003.3hPa West 2.0mph /  3.2km/h 8.0mph /  12.9km/h 77% 0.00in /  0mm
02:25 33.6 °F /  0.9 °C 26.2 °F /  -3.2 °C 29.63in /  1003.3hPa West 4.0mph /  6.4km/h 10.0mph /  16.1km/h 74% 0.00in /  0mm
02:35 34.2 °F /  1.2 °C 26.5 °F /  -3.1 °C 29.65in /  1003.9hPa WNW 6.0mph /  9.7km/h 21.0mph /  33.8km/h 73% 0.00in /  0mm
02:40 33.8 °F /  1 °C 27.4 °F /  -2.6 °C 29.64in /  1003.6hPa NW 7.0mph /  11.3km/h 21.0mph /  33.8km/h 77% 0.00in /  0mm
02:45 33.3 °F /  0.7 °C 26.9 °F /  -2.8 °C 29.65in /  1003.9hPa West 4.0mph /  6.4km/h 13.0mph /  20.9km/h 77% 0.00in /  0mm
02:50 33.2 °F /  0.7 °C 27.1 °F /  -2.7 °C 29.65in /  1003.9hPa West 7.0mph /  11.3km/h 19.0mph /  30.6km/h 78% 0.00in /  0mm
02:55 33.2 °F /  0.7 °C 27.1 °F /  -2.7 °C 29.64in /  1003.6hPa WSW 6.0mph /  9.7km/h 19.0mph /  30.6km/h 78% 0.00in /  0mm
03:00 33.2 °F /  0.7 °C 26.8 °F /  -2.9 °C 29.65in /  1003.9hPa SW 7.0mph /  11.3km/h 19.0mph /  30.6km/h 77% 0.00in /  0mm
03:05 33.1 °F /  0.6 °C 26.4 °F /  -3.1 °C 29.65in /  1003.9hPa WSW 7.0mph /  11.3km/h 21.0mph /  33.8km/h 76% 0.00in /  0mm
03:10 33.1 °F /  0.6 °C 26.4 °F /  -3.1 °C 29.65in /  1003.9hPa WSW 7.0mph /  11.3km/h 21.0mph /  33.8km/h 76% 0.00in /  0mm
03:15 33.1 °F /  0.6 °C 26.0 °F /  -3.3 °C 29.65in /  1003.9hPa WSW 6.0mph /  9.7km/h 18.0mph /  29km/h 75% 0.00in /  0mm
03:20 33.1 °F /  0.6 °C 26.0 °F /  -3.3 °C 29.65in /  1003.9hPa WSW 8.0mph /  12.9km/h 18.0mph /  29km/h 75% 0.00in /  0mm
03:30 33.4 °F /  0.8 °C 25.7 °F /  -3.5 °C 29.65in /  1003.9hPa WSW 8.0mph /  12.9km/h 18.0mph /  29km/h 73% 0.00in /  0mm
03:35 33.5 °F /  0.8 °C 25.1 °F /  -3.8 °C 29.66in /  1004.3hPa WSW 8.0mph /  12.9km/h 17.0mph /  27.4km/h 71% 0.00in /  0mm
03:40 33.6 °F /  0.9 °C 25.2 °F /  -3.8 °C 29.66in /  1004.3hPa WSW 8.0mph /  12.9km/h 17.0mph /  27.4km/h 71% 0.00in /  0mm
03:45 33.6 °F /  0.9 °C 25.2 °F /  -3.8 °C 29.66in /  1004.3hPa WSW 5.0mph /  8km/h 16.0mph /  25.7km/h 71% 0.00in /  0mm
03:50 33.7 °F /  0.9 °C 25.3 °F /  -3.7 °C 29.66in /  1004.3hPa WSW 5.0mph /  8km/h 17.0mph /  27.4km/h 71% 0.00in /  0mm
03:55 33.6 °F /  0.9 °C 25.5 °F /  -3.6 °C 29.67in /  1004.6hPa WSW 4.0mph /  6.4km/h 17.0mph /  27.4km/h 72% 0.00in /  0mm
04:00 33.5 °F /  0.8 °C 25.8 °F /  -3.4 °C 29.67in /  1004.6hPa WSW 6.0mph /  9.7km/h 14.0mph /  22.5km/h 73% 0.00in /  0mm
04:05 33.5 °F /  0.8 °C 25.4 °F /  -3.7 °C 29.67in /  1004.6hPa WSW 6.0mph /  9.7km/h 10.0mph /  16.1km/h 72% 0.00in /  0mm
04:10 33.5 °F /  0.8 °C 25.4 °F /  -3.7 °C 29.67in /  1004.6hPa SW 6.0mph /  9.7km/h 13.0mph /  20.9km/h 72% 0.00in /  0mm
04:15 33.5 °F /  0.8 °C 25.4 °F /  -3.7 °C 29.67in /  1004.6hPa WSW 6.0mph /  9.7km/h 17.0mph /  27.4km/h 72% 0.00in /  0mm
04:20 33.5 °F /  0.8 °C 25.4 °F /  -3.7 °C 29.67in /  1004.6hPa WSW 5.0mph /  8km/h 17.0mph /  27.4km/h 72% 0.00in /  0mm
04:25 33.5 °F /  0.8 °C 25.1 °F /  -3.8 °C 29.67in /  1004.6hPa WSW 7.0mph /  11.3km/h 11.0mph /  17.7km/h 71% 0.00in /  0mm
04:30 33.6 °F /  0.9 °C 25.5 °F /  -3.6 °C 29.68in /  1005hPa SW 7.0mph /  11.3km/h 12.0mph /  19.3km/h 72% 0.00in /  0mm
04:35 33.7 °F /  0.9 °C 25.3 °F /  -3.7 °C 29.68in /  1005hPa WSW 6.0mph /  9.7km/h 15.0mph /  24.1km/h 71% 0.00in /  0mm
04:40 33.8 °F /  1 °C 24.7 °F /  -4.1 °C 29.68in /  1005hPa WSW 9.0mph /  14.5km/h 16.0mph /  25.7km/h 69% 0.00in /  0mm
04:45 34.0 °F /  1.1 °C 24.9 °F /  -3.9 °C 29.68in /  1005hPa WSW 6.0mph /  9.7km/h 16.0mph /  25.7km/h 69% 0.00in /  0mm
04:50 34.1 °F /  1.2 °C 24.6 °F /  -4.1 °C 29.68in /  1005hPa WSW 8.0mph /  12.9km/h 21.0mph /  33.8km/h 68% 0.00in /  0mm
04:55 34.2 °F /  1.2 °C 24.7 °F /  -4.1 °C 29.68in /  1005hPa West 9.0mph /  14.5km/h 21.0mph /  33.8km/h 68% 0.00in /  0mm
05:00 34.3 °F /  1.3 °C 24.5 °F /  -4.2 °C 29.69in /  1005.3hPa WSW 6.0mph /  9.7km/h 17.0mph /  27.4km/h 67% 0.00in /  0mm
05:05 34.3 °F /  1.3 °C 24.5 °F /  -4.2 °C 29.69in /  1005.3hPa West 8.0mph /  12.9km/h 17.0mph /  27.4km/h 67% 0.00in /  0mm
05:10 34.3 °F /  1.3 °C 24.5 °F /  -4.2 °C 29.69in /  1005.3hPa West 8.0mph /  12.9km/h 17.0mph /  27.4km/h 67% 0.00in /  0mm
05:15 34.4 °F /  1.3 °C 24.6 °F /  -4.1 °C 29.70in /  1005.6hPa West 9.0mph /  14.5km/h 20.0mph /  32.2km/h 67% 0.00in /  0mm
05:20 34.2 °F /  1.2 °C 24.7 °F /  -4.1 °C 29.70in /  1005.6hPa WNW 7.0mph /  11.3km/h 20.0mph /  32.2km/h 68% 0.00in /  0mm
05:25 33.9 °F /  1.1 °C 25.5 °F /  -3.6 °C 29.71in /  1006hPa NW 7.0mph /  11.3km/h 13.0mph /  20.9km/h 71% 0.00in /  0mm
05:30 33.5 °F /  0.8 °C 25.8 °F /  -3.4 °C 29.71in /  1006hPa WNW 5.0mph /  8km/h 14.0mph /  22.5km/h 73% 0.00in /  0mm
05:35 33.3 °F /  0.7 °C 25.6 °F /  -3.6 °C 29.71in /  1006hPa WSW 4.0mph /  6.4km/h 14.0mph /  22.5km/h 73% 0.00in /  0mm
05:40 33.3 °F /  0.7 °C 25.3 °F /  -3.7 °C 29.72in /  1006.3hPa WNW 8.0mph /  12.9km/h 17.0mph /  27.4km/h 72% 0.00in /  0mm
05:45 33.3 °F /  0.7 °C 25.3 °F /  -3.7 °C 29.72in /  1006.3hPa West 9.0mph /  14.5km/h 20.0mph /  32.2km/h 72% 0.00in /  0mm
05:50 33.3 °F /  0.7 °C 24.6 °F /  -4.1 °C 29.72in /  1006.3hPa West 12.0mph /  19.3km/h 20.0mph /  32.2km/h 70% 0.00in /  0mm
05:55 33.2 °F /  0.7 °C 24.8 °F /  -4 °C 29.72in /  1006.3hPa West 5.0mph /  8km/h 18.0mph /  29km/h 71% 0.00in /  0mm
06:00 33.2 °F /  0.7 °C 24.8 °F /  -4 °C 29.73in /  1006.7hPa West 5.0mph /  8km/h 12.0mph /  19.3km/h 71% 0.00in /  0mm
06:05 33.2 °F /  0.7 °C 24.5 °F /  -4.2 °C 29.73in /  1006.7hPa WSW 5.0mph /  8km/h 12.0mph /  19.3km/h 70% 0.00in /  0mm
06:10 33.2 °F /  0.7 °C 24.8 °F /  -4 °C 29.73in /  1006.7hPa West 5.0mph /  8km/h 12.0mph /  19.3km/h 71% 0.00in /  0mm
06:15 33.2 °F /  0.7 °C 24.5 °F /  -4.2 °C 29.73in /  1006.7hPa WNW 6.0mph /  9.7km/h 10.0mph /  16.1km/h 70% 0.00in /  0mm
06:20 33.2 °F /  0.7 °C 24.5 °F /  -4.2 °C 29.74in /  1007hPa West 3.0mph /  4.8km/h 10.0mph /  16.1km/h 70% 0.00in /  0mm
06:25 33.2 °F /  0.7 °C 24.8 °F /  -4 °C 29.74in /  1007hPa West 5.0mph /  8km/h 11.0mph /  17.7km/h 71% 0.00in /  0mm
06:30 33.2 °F /  0.7 °C 24.8 °F /  -4 °C 29.74in /  1007hPa West 6.0mph /  9.7km/h 11.0mph /  17.7km/h 71% 0.00in /  0mm
06:35 33.2 °F /  0.7 °C 25.2 °F /  -3.8 °C 29.74in /  1007hPa WSW 3.0mph /  4.8km/h 9.0mph /  14.5km/h 72% 0.00in /  0mm
06:40 33.2 °F /  0.7 °C 24.8 °F /  -4 °C 29.75in /  1007.3hPa SW 4.0mph /  6.4km/h 9.0mph /  14.5km/h 71% 0.00in /  0mm
06:45 33.3 °F /  0.7 °C 25.3 °F /  -3.7 °C 29.75in /  1007.3hPa SW 5.0mph /  8km/h 10.0mph /  16.1km/h 72% 0.00in /  0mm
06:50 33.4 °F /  0.8 °C 24.7 °F /  -4.1 °C 29.75in /  1007.3hPa WSW 6.0mph /  9.7km/h 10.0mph /  16.1km/h 70% 0.00in /  0mm
06:55 33.4 °F /  0.8 °C 25.0 °F /  -3.9 °C 29.75in /  1007.3hPa West 5.0mph /  8km/h 11.0mph /  17.7km/h 71% 0.00in /  0mm
07:00 33.5 °F /  0.8 °C 25.1 °F /  -3.8 °C 29.76in /  1007.7hPa WSW 5.0mph /  8km/h 11.0mph /  17.7km/h 71% 0.00in /  0mm
07:05 33.5 °F /  0.8 °C 25.1 °F /  -3.8 °C 29.76in /  1007.7hPa West 6.0mph /  9.7km/h 13.0mph /  20.9km/h 71% 0.00in /  0mm
07:10 33.6 °F /  0.9 °C 24.9 °F /  -3.9 °C 29.76in /  1007.7hPa West 4.0mph /  6.4km/h 13.0mph /  20.9km/h 70% 0.00in /  0mm
07:15 33.7 °F /  0.9 °C 24.6 °F /  -4.1 °C 29.77in /  1008hPa West 8.0mph /  12.9km/h 14.0mph /  22.5km/h 69% 0.00in /  0mm
07:20 33.7 °F /  0.9 °C 25.0 °F /  -3.9 °C 29.77in /  1008hPa West 6.0mph /  9.7km/h 14.0mph /  22.5km/h 70% 0.00in /  0mm
07:25 33.7 °F /  0.9 °C 24.6 °F /  -4.1 °C 29.77in /  1008hPa WNW 8.0mph /  12.9km/h 12.0mph /  19.3km/h 69% 0.00in /  0mm
07:30 33.7 °F /  0.9 °C 24.3 °F /  -4.3 °C 29.78in /  1008.4hPa NW 8.0mph /  12.9km/h 14.0mph /  22.5km/h 68% 0.00in /  0mm
07:35 33.7 °F /  0.9 °C 24.3 °F /  -4.3 °C 29.78in /  1008.4hPa WNW 4.0mph /  6.4km/h 21.0mph /  33.8km/h 68% 0.00in /  0mm
07:40 33.7 °F /  0.9 °C 23.6 °F /  -4.7 °C 29.79in /  1008.7hPa West 8.0mph /  12.9km/h 21.0mph /  33.8km/h 66% 0.00in /  0mm
07:45 33.6 °F /  0.9 °C 23.1 °F /  -4.9 °C 29.79in /  1008.7hPa WSW 12.0mph /  19.3km/h 22.0mph /  35.4km/h 65% 0.00in /  0mm
07:50 33.6 °F /  0.9 °C 22.7 °F /  -5.2 °C 29.80in /  1009hPa WSW 11.0mph /  17.7km/h 22.0mph /  35.4km/h 64% 0.00in /  0mm
07:55 33.5 °F /  0.8 °C 23.0 °F /  -5 °C 29.80in /  1009hPa West 7.0mph /  11.3km/h 21.0mph /  33.8km/h 65% 0.00in /  0mm
08:00 33.5 °F /  0.8 °C 23.0 °F /  -5 °C 29.80in /  1009hPa West 9.0mph /  14.5km/h 20.0mph /  32.2km/h 65% 0.00in /  0mm
08:05 33.5 °F /  0.8 °C 22.6 °F /  -5.2 °C 29.80in /  1009hPa West 11.0mph /  17.7km/h 20.0mph /  32.2km/h 64% 0.00in /  0mm
08:10 33.6 °F /  0.9 °C 22.4 °F /  -5.3 °C 29.80in /  1009hPa WNW 13.0mph /  20.9km/h 21.0mph /  33.8km/h 63% 0.00in /  0mm
08:15 33.6 °F /  0.9 °C 22.4 °F /  -5.3 °C 29.80in /  1009hPa WNW 9.0mph /  14.5km/h 21.0mph /  33.8km/h 63% 0.00in /  0mm
08:20 33.7 °F /  0.9 °C 22.4 °F /  -5.3 °C 29.81in /  1009.4hPa WSW 7.0mph /  11.3km/h 20.0mph /  32.2km/h 63% 0.00in /  0mm
08:25 33.7 °F /  0.9 °C 22.8 °F /  -5.1 °C 29.81in /  1009.4hPa West 9.0mph /  14.5km/h 20.0mph /  32.2km/h 64% 0.00in /  0mm
08:30 33.8 °F /  1 °C 22.9 °F /  -5.1 °C 29.81in /  1009.4hPa WNW 6.0mph /  9.7km/h 21.0mph /  33.8km/h 64% 0.00in /  0mm
08:35 33.9 °F /  1.1 °C 23.0 °F /  -5 °C 29.81in /  1009.4hPa WNW 10.0mph /  16.1km/h 21.0mph /  33.8km/h 64% 0.00in /  0mm
08:40 34.0 °F /  1.1 °C 23.1 °F /  -4.9 °C 29.81in /  1009.4hPa West 8.0mph /  12.9km/h 16.0mph /  25.7km/h 64% 0.00in /  0mm
08:45 34.1 °F /  1.2 °C 23.2 °F /  -4.9 °C 29.82in /  1009.7hPa WSW 8.0mph /  12.9km/h 17.0mph /  27.4km/h 64% 0.00in /  0mm
08:50 34.2 °F /  1.2 °C 23.7 °F /  -4.6 °C 29.82in /  1009.7hPa West 7.0mph /  11.3km/h 17.0mph /  27.4km/h 65% 0.00in /  0mm
08:55 34.2 °F /  1.2 °C 23.7 °F /  -4.6 °C 29.82in /  1009.7hPa WSW 7.0mph /  11.3km/h 17.0mph /  27.4km/h 65% 0.00in /  0mm
09:00 34.4 °F /  1.3 °C 24.6 °F /  -4.1 °C 29.82in /  1009.7hPa WSW 4.0mph /  6.4km/h 17.0mph /  27.4km/h 67% 0.00in /  0mm
09:05 34.4 °F /  1.3 °C 24.2 °F /  -4.3 °C 29.83in /  1010hPa WSW 7.0mph /  11.3km/h 16.0mph /  25.7km/h 66% 0.00in /  0mm
09:10 34.4 °F /  1.3 °C 23.9 °F /  -4.5 °C 29.83in /  1010hPa WSW 7.0mph /  11.3km/h 14.0mph /  22.5km/h 65% 0.00in /  0mm
09:15 34.4 °F /  1.3 °C 23.9 °F /  -4.5 °C 29.83in /  1010hPa West 7.0mph /  11.3km/h 21.0mph /  33.8km/h 65% 0.00in /  0mm
09:20 35.0 °F /  1.7 °C 25.2 °F /  -3.8 °C 29.83in /  1010hPa WSW 8.0mph /  12.9km/h 21.0mph /  33.8km/h 67% 0.00in /  0mm
09:25 35.1 °F /  1.7 °C 24.5 °F /  -4.2 °C 29.83in /  1010hPa West 7.0mph /  11.3km/h 16.0mph /  25.7km/h 65% 0.00in /  0mm
09:30 34.9 °F /  1.6 °C 24.3 °F /  -4.3 °C 29.84in /  1010.4hPa WSW 10.0mph /  16.1km/h 18.0mph /  29km/h 65% 0.00in /  0mm
09:35 34.7 °F /  1.5 °C 23.8 °F /  -4.6 °C 29.83in /  1010hPa West 9.0mph /  14.5km/h 18.0mph /  29km/h 64% 0.00in /  0mm
09:40 34.8 °F /  1.6 °C 24.6 °F /  -4.1 °C 29.84in /  1010.4hPa WSW 5.0mph /  8km/h 17.0mph /  27.4km/h 66% 0.00in /  0mm
09:45 35.1 °F /  1.7 °C 24.9 °F /  -3.9 °C 29.84in /  1010.4hPa WNW 8.0mph /  12.9km/h 17.0mph /  27.4km/h 66% 0.00in /  0mm
09:50 35.0 °F /  1.7 °C 24.8 °F /  -4 °C 29.84in /  1010.4hPa West 6.0mph /  9.7km/h 17.0mph /  27.4km/h 66% 0.00in /  0mm
09:55 35.0 °F /  1.7 °C 24.4 °F /  -4.2 °C 29.84in /  1010.4hPa SW 7.0mph /  11.3km/h 14.0mph /  22.5km/h 65% 0.00in /  0mm
10:00 35.1 °F /  1.7 °C 24.9 °F /  -3.9 °C 29.84in /  1010.4hPa West 8.0mph /  12.9km/h 15.0mph /  24.1km/h 66% 0.00in /  0mm
10:05 35.1 °F /  1.7 °C 24.9 °F /  -3.9 °C 29.85in /  1010.7hPa West 9.0mph /  14.5km/h 18.0mph /  29km/h 66% 0.00in /  0mm
10:10 35.1 °F /  1.7 °C 24.2 °F /  -4.3 °C 29.85in /  1010.7hPa West 11.0mph /  17.7km/h 20.0mph /  32.2km/h 64% 0.00in /  0mm
10:15 35.5 °F /  1.9 °C 25.3 °F /  -3.7 °C 29.85in /  1010.7hPa WSW 6.0mph /  9.7km/h 20.0mph /  32.2km/h 66% 0.00in /  0mm
10:20 36.1 °F /  2.3 °C 26.2 °F /  -3.2 °C 29.85in /  1010.7hPa WSW 7.0mph /  11.3km/h 16.0mph /  25.7km/h 67% 0.00in /  0mm
10:25 36.1 °F /  2.3 °C 25.5 °F /  -3.6 °C 29.85in /  1010.7hPa West 7.0mph /  11.3km/h 17.0mph /  27.4km/h 65% 0.00in /  0mm
10:30 35.7 °F /  2.1 °C 25.1 °F /  -3.8 °C 29.85in /  1010.7hPa WSW 6.0mph /  9.7km/h 18.0mph /  29km/h 65% 0.00in /  0mm
10:35 35.5 °F /  1.9 °C 25.3 °F /  -3.7 °C 29.85in /  1010.7hPa West 5.0mph /  8km/h 18.0mph /  29km/h 66% 0.00in /  0mm
10:45 36.0 °F /  2.2 °C 26.1 °F /  -3.3 °C 29.85in /  1010.7hPa West 5.0mph /  8km/h 15.0mph /  24.1km/h 67% 0.00in /  0mm
10:50 36.3 °F /  2.4 °C 26.0 °F /  -3.3 °C 29.85in /  1010.7hPa WNW 7.0mph /  11.3km/h 15.0mph /  24.1km/h 66% 0.00in /  0mm
10:55 36.1 °F /  2.3 °C 25.1 °F /  -3.8 °C 29.85in /  1010.7hPa WSW 8.0mph /  12.9km/h 16.0mph /  25.7km/h 64% 0.00in /  0mm
11:00 36.0 °F /  2.2 °C 25.7 °F /  -3.5 °C 29.85in /  1010.7hPa West 6.0mph /  9.7km/h 16.0mph /  25.7km/h 66% 0.00in /  0mm
11:05 36.5 °F /  2.5 °C 25.5 °F /  -3.6 °C 29.85in /  1010.7hPa WSW 4.0mph /  6.4km/h 16.0mph /  25.7km/h 64% 0.00in /  0mm
11:10 36.4 °F /  2.4 °C 25.4 °F /  -3.7 °C 29.85in /  1010.7hPa West 8.0mph /  12.9km/h 11.0mph /  17.7km/h 64% 0.00in /  0mm
11:15 36.4 °F /  2.4 °C 25.8 °F /  -3.4 °C 29.86in /  1011.1hPa West 5.0mph /  8km/h 11.0mph /  17.7km/h 65% 0.00in /  0mm
11:20 36.4 °F /  2.4 °C 25.4 °F /  -3.7 °C 29.86in /  1011.1hPa West 9.0mph /  14.5km/h 15.0mph /  24.1km/h 64% 0.00in /  0mm
11:25 36.5 °F /  2.5 °C 25.1 °F /  -3.8 °C 29.87in /  1011.4hPa West 6.0mph /  9.7km/h 15.0mph /  24.1km/h 63% 0.00in /  0mm
11:30 36.6 °F /  2.6 °C 25.6 °F /  -3.6 °C 29.87in /  1011.4hPa SW 5.0mph /  8km/h 14.0mph /  22.5km/h 64% 0.00in /  0mm
11:35 36.6 °F /  2.6 °C 25.6 °F /  -3.6 °C 29.87in /  1011.4hPa WSW 5.0mph /  8km/h 14.0mph /  22.5km/h 64% 0.00in /  0mm
11:40 37.0 °F /  2.8 °C 26.0 °F /  -3.3 °C 29.88in /  1011.7hPa WSW 7.0mph /  11.3km/h 13.0mph /  20.9km/h 64% 0.00in /  0mm
11:45 37.1 °F /  2.8 °C 25.7 °F /  -3.5 °C 29.88in /  1011.7hPa West 6.0mph /  9.7km/h 13.0mph /  20.9km/h 63% 0.00in /  0mm
11:50 37.6 °F /  3.1 °C 26.5 °F /  -3.1 °C 29.88in /  1011.7hPa WNW 8.0mph /  12.9km/h 13.0mph /  20.9km/h 64% 0.00in /  0mm
11:55 37.6 °F /  3.1 °C 26.1 °F /  -3.3 °C 29.87in /  1011.4hPa WNW 7.0mph /  11.3km/h 13.0mph /  20.9km/h 63% 0.00in /  0mm
12:00 37.4 °F /  3 °C 26.0 °F /  -3.3 °C 29.88in /  1011.7hPa WNW 6.0mph /  9.7km/h 11.0mph /  17.7km/h 63% 0.00in /  0mm
12:05 37.2 °F /  2.9 °C 25.4 °F /  -3.7 °C 29.88in /  1011.7hPa NW 9.0mph /  14.5km/h 18.0mph /  29km/h 62% 0.00in /  0mm
12:10 37.2 °F /  2.9 °C 25.8 °F /  -3.4 °C 29.88in /  1011.7hPa WNW 8.0mph /  12.9km/h 18.0mph /  29km/h 63% 0.00in /  0mm
12:15 37.6 °F /  3.1 °C 26.9 °F /  -2.8 °C 29.88in /  1011.7hPa West 3.0mph /  4.8km/h 18.0mph /  29km/h 65% 0.00in /  0mm
12:20 38.1 °F /  3.4 °C 27.0 °F /  -2.8 °C 29.88in /  1011.7hPa West 7.0mph /  11.3km/h 15.0mph /  24.1km/h 64% 0.00in /  0mm
12:25 38.5 °F /  3.6 °C 26.6 °F /  -3 °C 29.88in /  1011.7hPa West 4.0mph /  6.4km/h 15.0mph /  24.1km/h 62% 0.00in /  0mm
12:30 38.6 °F /  3.7 °C 26.7 °F /  -2.9 °C 29.88in /  1011.7hPa WNW 5.0mph /  8km/h 11.0mph /  17.7km/h 62% 0.00in /  0mm
12:35 38.6 °F /  3.7 °C 26.7 °F /  -2.9 °C 29.88in /  1011.7hPa WNW 6.0mph /  9.7km/h 12.0mph /  19.3km/h 62% 0.00in /  0mm
12:40 38.6 °F /  3.7 °C 26.3 °F /  -3.2 °C 29.88in /  1011.7hPa West 6.0mph /  9.7km/h 12.0mph /  19.3km/h 61% 0.00in /  0mm
12:45 39.7 °F /  4.3 °C 28.1 °F /  -2.2 °C 29.87in /  1011.4hPa West 6.0mph /  9.7km/h 11.0mph /  17.7km/h 63% 0.00in /  0mm
12:50 40.1 °F /  4.5 °C 28.1 °F /  -2.2 °C 29.88in /  1011.7hPa WSW 8.0mph /  12.9km/h 14.0mph /  22.5km/h 62% 0.00in /  0mm
12:55 40.1 °F /  4.5 °C 28.1 °F /  -2.2 °C 29.88in /  1011.7hPa WNW 8.0mph /  12.9km/h 14.0mph /  22.5km/h 62% 0.00in /  0mm
13:00 39.5 °F /  4.2 °C 26.8 °F /  -2.9 °C 29.88in /  1011.7hPa West 6.0mph /  9.7km/h 14.0mph /  22.5km/h 60% 0.00in /  0mm
13:05 39.7 °F /  4.3 °C 28.1 °F /  -2.2 °C 29.87in /  1011.4hPa WNW 7.0mph /  11.3km/h 12.0mph /  19.3km/h 63% 0.00in /  0mm
13:10 39.2 °F /  4 °C 26.9 °F /  -2.8 °C 29.88in /  1011.7hPa WNW 4.0mph /  6.4km/h 16.0mph /  25.7km/h 61% 0.00in /  0mm
13:15 39.1 °F /  3.9 °C 26.8 °F /  -2.9 °C 29.88in /  1011.7hPa WNW 8.0mph /  12.9km/h 16.0mph /  25.7km/h 61% 0.00in /  0mm
13:20 39.2 °F /  4 °C 26.9 °F /  -2.8 °C 29.87in /  1011.4hPa WNW 5.0mph /  8km/h 13.0mph /  20.9km/h 61% 0.00in /  0mm
13:25 39.5 °F /  4.2 °C 26.4 °F /  -3.1 °C 29.87in /  1011.4hPa West 7.0mph /  11.3km/h 11.0mph /  17.7km/h 59% 0.00in /  0mm
13:30 40.0 °F /  4.4 °C 27.2 °F /  -2.7 °C 29.87in /  1011.4hPa West 4.0mph /  6.4km/h 11.0mph /  17.7km/h 60% 0.00in /  0mm
13:40 40.2 °F /  4.6 °C 27.0 °F /  -2.8 °C 29.87in /  1011.4hPa West 5.0mph /  8km/h 9.0mph /  14.5km/h 59% 0.00in /  0mm
13:45 41.1 °F /  5.1 °C 28.7 °F /  -1.8 °C 29.87in /  1011.4hPa WSW 4.0mph /  6.4km/h 12.0mph /  19.3km/h 61% 0.00in /  0mm
13:50 41.9 °F /  5.5 °C 29.4 °F /  -1.4 °C 29.87in /  1011.4hPa WNW 10.0mph /  16.1km/h 15.0mph /  24.1km/h 61% 0.00in /  0mm
13:55 42.7 °F /  5.9 °C 28.1 °F /  -2.2 °C 29.86in /  1011.1hPa WNW 8.0mph /  12.9km/h 16.0mph /  25.7km/h 56% 0.00in /  0mm
14:00 43.7 °F /  6.5 °C 29.5 °F /  -1.4 °C 29.87in /  1011.4hPa WSW 9.0mph /  14.5km/h 16.0mph /  25.7km/h 57% 0.00in /  0mm
14:05 43.7 °F /  6.5 °C 28.6 °F /  -1.9 °C 29.86in /  1011.1hPa WSW 6.0mph /  9.7km/h 15.0mph /  24.1km/h 55% 0.00in /  0mm
14:10 44.1 °F /  6.7 °C 29.8 °F /  -1.2 °C 29.86in /  1011.1hPa WSW 6.0mph /  9.7km/h 15.0mph /  24.1km/h 57% 0.00in /  0mm
14:15 44.0 °F /  6.7 °C 28.9 °F /  -1.7 °C 29.86in /  1011.1hPa WSW 3.0mph /  4.8km/h 15.0mph /  24.1km/h 55% 0.00in /  0mm
14:20 44.4 °F /  6.9 °C 29.2 °F /  -1.6 °C 29.86in /  1011.1hPa West 7.0mph /  11.3km/h 12.0mph /  19.3km/h 55% 0.00in /  0mm
14:25 44.4 °F /  6.9 °C 29.7 °F /  -1.3 °C 29.86in /  1011.1hPa West 8.0mph /  12.9km/h 16.0mph /  25.7km/h 56% 0.00in /  0mm
14:30 44.0 °F /  6.7 °C 28.4 °F /  -2 °C 29.86in /  1011.1hPa West 5.0mph /  8km/h 16.0mph /  25.7km/h 54% 0.00in /  0mm
14:40 44.6 °F /  7 °C 28.1 °F /  -2.2 °C 29.86in /  1011.1hPa SW 8.0mph /  12.9km/h 13.0mph /  20.9km/h 52% 0.00in /  0mm
14:45 44.7 °F /  7.1 °C 28.2 °F /  -2.1 °C 29.86in /  1011.1hPa West 4.0mph /  6.4km/h 13.0mph /  20.9km/h 52% 0.00in /  0mm
14:50 44.9 °F /  7.2 °C 28.3 °F /  -2.1 °C 29.87in /  1011.4hPa WNW 7.0mph /  11.3km/h 11.0mph /  17.7km/h 52% 0.00in /  0mm
14:55 44.5 °F /  6.9 °C 28.9 °F /  -1.7 °C 29.87in /  1011.4hPa West 7.0mph /  11.3km/h 11.0mph /  17.7km/h 54% 0.00in /  0mm
15:00 44.8 °F /  7.1 °C 28.2 °F /  -2.1 °C 29.87in /  1011.4hPa West 8.0mph /  12.9km/h 13.0mph /  20.9km/h 52% 0.00in /  0mm
15:05 45.0 °F /  7.2 °C 28.4 °F /  -2 °C 29.87in /  1011.4hPa West 8.0mph /  12.9km/h 15.0mph /  24.1km/h 52% 0.00in /  0mm
15:10 45.2 °F /  7.3 °C 29.1 °F /  -1.6 °C 29.87in /  1011.4hPa WSW 5.0mph /  8km/h 15.0mph /  24.1km/h 53% 0.00in /  0mm
15:15 45.9 °F /  7.7 °C 30.2 °F /  -1 °C 29.87in /  1011.4hPa WNW 6.0mph /  9.7km/h 12.0mph /  19.3km/h 54% 0.00in /  0mm
15:20 46.2 °F /  7.9 °C 28.1 °F /  -2.2 °C 29.87in /  1011.4hPa SSW 7.0mph /  11.3km/h 12.0mph /  19.3km/h 49% 0.00in /  0mm
15:25 45.0 °F /  7.2 °C 28.0 °F /  -2.2 °C 29.87in /  1011.4hPa WSW 7.0mph /  11.3km/h 13.0mph /  20.9km/h 51% 0.00in /  0mm
15:30 44.9 °F /  7.2 °C 27.9 °F /  -2.3 °C 29.87in /  1011.4hPa WSW 6.0mph /  9.7km/h 13.0mph /  20.9km/h 51% 0.00in /  0mm
15:40 45.0 °F /  7.2 °C 28.4 °F /  -2 °C 29.87in /  1011.4hPa West 6.0mph /  9.7km/h 13.0mph /  20.9km/h 52% 0.00in /  0mm
15:45 44.6 °F /  7 °C 29.4 °F /  -1.4 °C 29.87in /  1011.4hPa West 5.0mph /  8km/h 12.0mph /  19.3km/h 55% 0.00in /  0mm
15:50 44.7 °F /  7.1 °C 28.2 °F /  -2.1 °C 29.87in /  1011.4hPa WSW 5.0mph /  8km/h 13.0mph /  20.9km/h 52% 0.00in /  0mm
15:55 45.0 °F /  7.2 °C 28.0 °F /  -2.2 °C 29.87in /  1011.4hPa West 4.0mph /  6.4km/h 13.0mph /  20.9km/h 51% 0.00in /  0mm
16:00 45.3 °F /  7.4 °C 27.8 °F /  -2.3 °C 29.88in /  1011.7hPa WSW 7.0mph /  11.3km/h 12.0mph /  19.3km/h 50% 0.00in /  0mm
16:05 45.0 °F /  7.2 °C 27.0 °F /  -2.8 °C 29.88in /  1011.7hPa WSW 9.0mph /  14.5km/h 13.0mph /  20.9km/h 49% 0.00in /  0mm
16:10 45.0 °F /  7.2 °C 28.0 °F /  -2.2 °C 29.88in /  1011.7hPa West 5.0mph /  8km/h 16.0mph /  25.7km/h 51% 0.00in /  0mm
16:15 45.1 °F /  7.3 °C 27.6 °F /  -2.4 °C 29.88in /  1011.7hPa WNW 7.0mph /  11.3km/h 16.0mph /  25.7km/h 50% 0.00in /  0mm
16:20 44.3 °F /  6.8 °C 26.8 °F /  -2.9 °C 29.88in /  1011.7hPa West 7.0mph /  11.3km/h 12.0mph /  19.3km/h 50% 0.00in /  0mm
16:25 44.0 °F /  6.7 °C 27.0 °F /  -2.8 °C 29.88in /  1011.7hPa WSW 5.0mph /  8km/h 12.0mph /  19.3km/h 51% 0.00in /  0mm
16:30 44.3 °F /  6.8 °C 27.8 °F /  -2.3 °C 29.88in /  1011.7hPa West 7.0mph /  11.3km/h 10.0mph /  16.1km/h 52% 0.00in /  0mm
16:35 44.1 °F /  6.7 °C 27.6 °F /  -2.4 °C 29.89in /  1012.1hPa WSW 5.0mph /  8km/h 11.0mph /  17.7km/h 52% 0.00in /  0mm
16:40 44.3 °F /  6.8 °C 26.8 °F /  -2.9 °C 29.89in /  1012.1hPa West 6.0mph /  9.7km/h 11.0mph /  17.7km/h 50% 0.00in /  0mm
16:45 44.6 °F /  7 °C 27.1 °F /  -2.7 °C 29.89in /  1012.1hPa WNW 5.0mph /  8km/h 10.0mph /  16.1km/h 50% 0.00in /  0mm
16:50 45.0 °F /  7.2 °C 27.5 °F /  -2.5 °C 29.88in /  1011.7hPa West 5.0mph /  8km/h 10.0mph /  16.1km/h 50% 0.00in /  0mm
16:55 44.7 °F /  7.1 °C 27.7 °F /  -2.4 °C 29.89in /  1012.1hPa WNW 4.0mph /  6.4km/h 12.0mph /  19.3km/h 51% 0.00in /  0mm
17:00 44.6 °F /  7 °C 27.1 °F /  -2.7 °C 29.89in /  1012.1hPa WNW 7.0mph /  11.3km/h 12.0mph /  19.3km/h 50% 0.00in /  0mm
17:05 44.2 °F /  6.8 °C 26.7 °F /  -2.9 °C 29.89in /  1012.1hPa WNW 7.0mph /  11.3km/h 10.0mph /  16.1km/h 50% 0.00in /  0mm
17:10 44.3 °F /  6.8 °C 27.3 °F /  -2.6 °C 29.89in /  1012.1hPa WNW 8.0mph /  12.9km/h 13.0mph /  20.9km/h 51% 0.00in /  0mm
17:15 44.2 °F /  6.8 °C 27.2 °F /  -2.7 °C 29.89in /  1012.1hPa WNW 7.0mph /  11.3km/h 13.0mph /  20.9km/h 51% 0.00in /  0mm
17:20 43.9 °F /  6.6 °C 26.9 °F /  -2.8 °C 29.89in /  1012.1hPa NW 7.0mph /  11.3km/h 11.0mph /  17.7km/h 51% 0.00in /  0mm
17:25 43.6 °F /  6.4 °C 27.6 °F /  -2.4 °C 29.90in /  1012.4hPa WNW 5.0mph /  8km/h 11.0mph /  17.7km/h 53% 0.00in /  0mm
17:30 43.5 °F /  6.4 °C 27.0 °F /  -2.8 °C 29.90in /  1012.4hPa WNW 7.0mph /  11.3km/h 11.0mph /  17.7km/h 52% 0.00in /  0mm
17:35 43.3 °F /  6.3 °C 26.9 °F /  -2.8 °C 29.90in /  1012.4hPa WNW 5.0mph /  8km/h 10.0mph /  16.1km/h 52% 0.00in /  0mm
17:40 43.2 °F /  6.2 °C 27.7 °F /  -2.4 °C 29.90in /  1012.4hPa WNW 4.0mph /  6.4km/h 9.0mph /  14.5km/h 54% 0.00in /  0mm
17:45 43.2 °F /  6.2 °C 26.8 °F /  -2.9 °C 29.90in /  1012.4hPa WNW 5.0mph /  8km/h 8.0mph /  12.9km/h 52% 0.00in /  0mm
17:50 43.1 °F /  6.2 °C 27.1 °F /  -2.7 °C 29.90in /  1012.4hPa West 4.0mph /  6.4km/h 8.0mph /  12.9km/h 53% 0.00in /  0mm
17:55 42.9 °F /  6.1 °C 26.9 °F /  -2.8 °C 29.90in /  1012.4hPa West 3.0mph /  4.8km/h 8.0mph /  12.9km/h 53% 0.00in /  0mm
18:00 42.9 °F /  6.1 °C 27.4 °F /  -2.6 °C 29.90in /  1012.4hPa NW 4.0mph /  6.4km/h 7.0mph /  11.3km/h 54% 0.00in /  0mm
18:05 42.8 °F /  6 °C 26.4 °F /  -3.1 °C 29.90in /  1012.4hPa NW 4.0mph /  6.4km/h 8.0mph /  12.9km/h 52% 0.00in /  0mm
18:10 42.7 °F /  5.9 °C 26.8 °F /  -2.9 °C 29.90in /  1012.4hPa WNW 3.0mph /  4.8km/h 8.0mph /  12.9km/h 53% 0.00in /  0mm
18:15 42.6 °F /  5.9 °C 27.1 °F /  -2.7 °C 29.90in /  1012.4hPa WNW 4.0mph /  6.4km/h 8.0mph /  12.9km/h 54% 0.00in /  0mm
18:20 42.5 °F /  5.8 °C 26.6 °F /  -3 °C 29.90in /  1012.4hPa NNW 3.0mph /  4.8km/h 7.0mph /  11.3km/h 53% 0.00in /  0mm
18:25 42.4 °F /  5.8 °C 26.9 °F /  -2.8 °C 29.90in /  1012.4hPa NW 1.0mph /  1.6km/h 6.0mph /  9.7km/h 54% 0.00in /  0mm
18:30 42.5 °F /  5.8 °C 27.5 °F /  -2.5 °C 29.90in /  1012.4hPa Calm   4.0mph /  6.4km/h 55% 0.00in /  0mm
18:35 42.5 °F /  5.8 °C 27.0 °F /  -2.8 °C 29.91in /  1012.8hPa NW 3.0mph /  4.8km/h 5.0mph /  8km/h 54% 0.00in /  0mm
18:40 42.5 °F /  5.8 °C 27.5 °F /  -2.5 °C 29.91in /  1012.8hPa NW 2.0mph /  3.2km/h 5.0mph /  8km/h 55% 0.00in /  0mm
18:45 42.4 °F /  5.8 °C 27.4 °F /  -2.6 °C 29.91in /  1012.8hPa NW 1.0mph /  1.6km/h 5.0mph /  8km/h 55% 0.00in /  0mm
18:50 42.4 °F /  5.8 °C 26.9 °F /  -2.8 °C 29.91in /  1012.8hPa West 1.0mph /  1.6km/h 5.0mph /  8km/h 54% 0.00in /  0mm
18:55 42.4 °F /  5.8 °C 27.4 °F /  -2.6 °C 29.92in /  1013.1hPa West 1.0mph /  1.6km/h 5.0mph /  8km/h 55% 0.00in /  0mm
19:00 42.4 °F /  5.8 °C 27.4 °F /  -2.6 °C 29.92in /  1013.1hPa WNW 3.0mph /  4.8km/h 5.0mph /  8km/h 55% 0.00in /  0mm
19:05 42.2 °F /  5.7 °C 26.7 °F /  -2.9 °C 29.92in /  1013.1hPa WNW 3.0mph /  4.8km/h 5.0mph /  8km/h 54% 0.00in /  0mm
19:10 42.1 °F /  5.6 °C 27.1 °F /  -2.7 °C 29.92in /  1013.1hPa Calm   5.0mph /  8km/h 55% 0.00in /  0mm
19:15 42.1 °F /  5.6 °C 27.1 °F /  -2.7 °C 29.92in /  1013.1hPa Calm   3.0mph /  4.8km/h 55% 0.00in /  0mm
19:20 42.0 °F /  5.6 °C 27.0 °F /  -2.8 °C 29.93in /  1013.4hPa Calm   3.0mph /  4.8km/h 55% 0.00in /  0mm
19:25 42.0 °F /  5.6 °C 27.9 °F /  -2.3 °C 29.93in /  1013.4hPa Calm   3.0mph /  4.8km/h 57% 0.00in /  0mm
19:30 41.9 °F /  5.5 °C 27.8 °F /  -2.3 °C 29.93in /  1013.4hPa WNW 1.0mph /  1.6km/h 3.0mph /  4.8km/h 57% 0.00in /  0mm
19:40 41.9 °F /  5.5 °C 29.0 °F /  -1.7 °C 29.93in /  1013.4hPa Calm     60% 0.00in /  0mm
19:45 41.8 °F /  5.4 °C 28.9 °F /  -1.7 °C 29.94in /  1013.8hPa Calm   4.0mph /  6.4km/h 60% 0.00in /  0mm
19:50 41.6 °F /  5.3 °C 27.9 °F /  -2.3 °C 29.94in /  1013.8hPa WNW 2.0mph /  3.2km/h 4.0mph /  6.4km/h 58% 0.00in /  0mm
19:55 41.5 °F /  5.3 °C 28.2 °F /  -2.1 °C 29.94in /  1013.8hPa Calm   4.0mph /  6.4km/h 59% 0.00in /  0mm
20:05 41.2 °F /  5.1 °C 30.3 °F /  -0.9 °C 29.94in /  1013.8hPa WSW 3.0mph /  4.8km/h 6.0mph /  9.7km/h 65% 0.00in /  0mm
20:10 41.1 °F /  5.1 °C 31.3 °F /  -0.4 °C 29.95in /  1014.1hPa Calm   6.0mph /  9.7km/h 68% 0.00in /  0mm
20:15 41.1 °F /  5.1 °C 31.0 °F /  -0.6 °C 29.95in /  1014.1hPa WSW 1.0mph /  1.6km/h 4.0mph /  6.4km/h 67% 0.00in /  0mm
20:20 40.9 °F /  4.9 °C 30.8 °F /  -0.7 °C 29.95in /  1014.1hPa Calm   3.0mph /  4.8km/h 67% 0.00in /  0mm
20:25 40.8 °F /  4.9 °C 30.3 °F /  -0.9 °C 29.95in /  1014.1hPa Calm     66% 0.00in /  0mm
20:30 40.6 °F /  4.8 °C 29.4 °F /  -1.4 °C 29.95in /  1014.1hPa Calm     64% 0.00in /  0mm
20:35 40.5 °F /  4.7 °C 29.3 °F /  -1.5 °C 29.95in /  1014.1hPa Calm     64% 0.00in /  0mm
20:40 40.5 °F /  4.7 °C 30.4 °F /  -0.9 °C 29.96in /  1014.4hPa Calm     67% 0.00in /  0mm
20:45 40.4 °F /  4.7 °C 30.3 °F /  -0.9 °C 29.96in /  1014.4hPa Calm   1.0mph /  1.6km/h 67% 0.00in /  0mm
20:50 40.4 °F /  4.7 °C 31.0 °F /  -0.6 °C 29.96in /  1014.4hPa Calm   2.0mph /  3.2km/h 69% 0.00in /  0mm
20:55 40.4 °F /  4.7 °C 31.4 °F /  -0.3 °C 29.96in /  1014.4hPa WSW 2.0mph /  3.2km/h 3.0mph /  4.8km/h 70% 0.00in /  0mm
21:00 40.5 °F /  4.7 °C 32.2 °F /  0.1 °C 29.96in /  1014.4hPa WSW 2.0mph /  3.2km/h 5.0mph /  8km/h 72% 0.00in /  0mm
21:05 40.5 °F /  4.7 °C 32.2 °F /  0.1 °C 29.96in /  1014.4hPa SW 2.0mph /  3.2km/h 5.0mph /  8km/h 72% 0.00in /  0mm
21:10 40.4 °F /  4.7 °C 32.1 °F /  0.1 °C 29.96in /  1014.4hPa SSW 2.0mph /  3.2km/h 5.0mph /  8km/h 72% 0.00in /  0mm
21:15 40.4 °F /  4.7 °C 32.4 °F /  0.2 °C 29.97in /  1014.8hPa SSW 1.0mph /  1.6km/h 5.0mph /  8km/h 73% 0.00in /  0mm
21:20 40.3 °F /  4.6 °C 32.3 °F /  0.2 °C 29.97in /  1014.8hPa Calm   3.0mph /  4.8km/h 73% 0.00in /  0mm
21:25 40.2 °F /  4.6 °C 32.6 °F /  0.3 °C 29.97in /  1014.8hPa SSW 1.0mph /  1.6km/h 4.0mph /  6.4km/h 74% 0.00in /  0mm
21:30 40.1 °F /  4.5 °C 32.5 °F /  0.3 °C 29.97in /  1014.8hPa SSW 1.0mph /  1.6km/h 5.0mph /  8km/h 74% 0.00in /  0mm
21:35 40.0 °F /  4.4 °C 32.4 °F /  0.2 °C 29.97in /  1014.8hPa SSW 1.0mph /  1.6km/h 5.0mph /  8km/h 74% 0.01in /  0.3mm
21:40 40.0 °F /  4.4 °C 32.4 °F /  0.2 °C 29.97in /  1014.8hPa Calm   4.0mph /  6.4km/h 74% 0.01in /  0.3mm
21:45 39.8 °F /  4.3 °C 31.5 °F /  -0.3 °C 29.98in /  1015.1hPa Calm   2.0mph /  3.2km/h 72% 0.01in /  0.3mm
21:50 39.6 °F /  4.2 °C 30.3 °F /  -0.9 °C 29.98in /  1015.1hPa Calm   4.0mph /  6.4km/h 69% 0.01in /  0.3mm
21:55 39.6 °F /  4.2 °C 29.9 °F /  -1.2 °C 29.98in /  1015.1hPa SSW 2.0mph /  3.2km/h 4.0mph /  6.4km/h 68% 0.01in /  0.3mm
22:00 39.5 °F /  4.2 °C 30.2 °F /  -1 °C 29.98in /  1015.1hPa Calm   4.0mph /  6.4km/h 69% 0.01in /  0.3mm
22:05 39.4 °F /  4.1 °C 29.7 °F /  -1.3 °C 29.98in /  1015.1hPa Calm   4.0mph /  6.4km/h 68% 0.01in /  0.3mm
22:10 39.2 °F /  4 °C 29.9 °F /  -1.2 °C 29.98in /  1015.1hPa SSW 1.0mph /  1.6km/h 4.0mph /  6.4km/h 69% 0.01in /  0.3mm
22:15 38.9 °F /  3.8 °C 29.6 °F /  -1.3 °C 29.98in /  1015.1hPa SSW 2.0mph /  3.2km/h 4.0mph /  6.4km/h 69% 0.01in /  0.3mm
22:20 38.6 °F /  3.7 °C 30.0 °F /  -1.1 °C 29.98in /  1015.1hPa Calm   4.0mph /  6.4km/h 71% 0.01in /  0.3mm
22:25 38.4 °F /  3.6 °C 29.8 °F /  -1.2 °C 29.99in /  1015.5hPa SSW 1.0mph /  1.6km/h 4.0mph /  6.4km/h 71% 0.01in /  0.3mm
22:30 38.3 °F /  3.5 °C 29.7 °F /  -1.3 °C 29.99in /  1015.5hPa WSW 2.0mph /  3.2km/h 6.0mph /  9.7km/h 71% 0.01in /  0.3mm
22:35 38.3 °F /  3.5 °C 29.7 °F /  -1.3 °C 29.99in /  1015.5hPa West 3.0mph /  4.8km/h 6.0mph /  9.7km/h 71% 0.01in /  0.3mm
22:40 38.2 °F /  3.4 °C 29.6 °F /  -1.3 °C 29.99in /  1015.5hPa WNW 3.0mph /  4.8km/h 6.0mph /  9.7km/h 71% 0.01in /  0.3mm
22:45 38.1 °F /  3.4 °C 29.5 °F /  -1.4 °C 29.99in /  1015.5hPa WNW 2.0mph /  3.2km/h 5.0mph /  8km/h 71% 0.01in /  0.3mm
22:50 38.1 °F /  3.4 °C 29.5 °F /  -1.4 °C 29.99in /  1015.5hPa Calm   6.0mph /  9.7km/h 71% 0.01in /  0.3mm
22:55 38.0 °F /  3.3 °C 29.8 °F /  -1.2 °C 29.99in /  1015.5hPa WNW 4.0mph /  6.4km/h 6.0mph /  9.7km/h 72% 0.01in /  0.3mm
23:00 37.9 °F /  3.3 °C 29.3 °F /  -1.5 °C 29.99in /  1015.5hPa WNW 3.0mph /  4.8km/h 7.0mph /  11.3km/h 71% 0.01in /  0.3mm
23:05 37.9 °F /  3.3 °C 29.7 °F /  -1.3 °C 29.99in /  1015.5hPa WNW 3.0mph /  4.8km/h 7.0mph /  11.3km/h 72% 0.01in /  0.3mm
23:10 37.8 °F /  3.2 °C 29.6 °F /  -1.3 °C 29.98in /  1015.1hPa WNW 4.0mph /  6.4km/h 7.0mph /  11.3km/h 72% 0.01in /  0.3mm
23:15 37.7 °F /  3.2 °C 29.5 °F /  -1.4 °C 29.99in /  1015.5hPa WNW 2.0mph /  3.2km/h 7.0mph /  11.3km/h 72% 0.01in /  0.3mm
23:20 37.7 °F /  3.2 °C 29.5 °F /  -1.4 °C 29.99in /  1015.5hPa Calm   5.0mph /  8km/h 72% 0.01in /  0.3mm
23:25 37.7 °F /  3.2 °C 29.8 °F /  -1.2 °C 29.99in /  1015.5hPa NW 1.0mph /  1.6km/h 5.0mph /  8km/h 73% 0.01in /  0.3mm
23:30 37.6 °F /  3.1 °C 29.4 °F /  -1.4 °C 29.99in /  1015.5hPa NW 1.0mph /  1.6km/h 6.0mph /  9.7km/h 72% 0.01in /  0.3mm
23:35 37.6 °F /  3.1 °C 29.4 °F /  -1.4 °C 29.99in /  1015.5hPa NW 3.0mph /  4.8km/h 6.0mph /  9.7km/h 72% 0.01in /  0.3mm
23:40 37.5 °F /  3.1 °C 29.3 °F /  -1.5 °C 29.99in /  1015.5hPa NW 2.0mph /  3.2km/h 5.0mph /  8km/h 72% 0.01in /  0.3mm
23:45 37.4 °F /  3 °C 29.5 °F /  -1.4 °C 29.99in /  1015.5hPa NW 1.0mph /  1.6km/h 5.0mph /  8km/h 73% 0.01in /  0.3mm
23:50 37.3 °F /  2.9 °C 29.4 °F /  -1.4 °C 29.99in /  1015.5hPa NW 2.0mph /  3.2km/h 5.0mph /  8km/h 73% 0.01in /  0.3mm
23:55 37.3 °F /  2.9 °C 29.4 °F /  -1.4 °C 29.99in /  1015.5hPa NW 2.0mph /  3.2km/h 5.0mph /  8km/h 73% 0.01in /  0.3mm
Westford Weather
Compliments of Weather Underground

 
 
Current Radar Loop:

Copyright © WestfordWeather.net 2007-2014. All rights reserved.